sensor_id;sensor_type;location;lat;lon;timestamp;pressure;altitude;pressure_sealevel;temperature;humidity
68628;BME280;55611;48.602;9.490;2023-03-15T00:01:27;96440;;;4.4;59
68628;BME280;55611;48.602;9.490;2023-03-15T00:03:58;96450;;;4.3;59
68628;BME280;55611;48.602;9.490;2023-03-15T00:06:28;96460;;;4.3;59
68628;BME280;55611;48.602;9.490;2023-03-15T00:08:59;96470;;;4.3;59
68628;BME280;55611;48.602;9.490;2023-03-15T00:11:29;96470;;;4.3;59
68628;BME280;55611;48.602;9.490;2023-03-15T00:14:00;96470;;;4.3;59
68628;BME280;55611;48.602;9.490;2023-03-15T00:16:30;96470;;;4.3;59
68628;BME280;55611;48.602;9.490;2023-03-15T00:19:01;96480;;;4.3;59
68628;BME280;55611;48.602;9.490;2023-03-15T00:21:31;96480;;;4.3;59
68628;BME280;55611;48.602;9.490;2023-03-15T00:24:02;96490;;;4.4;59
68628;BME280;55611;48.602;9.490;2023-03-15T00:26:32;96500;;;4.4;58.5
68628;BME280;55611;48.602;9.490;2023-03-15T00:29:03;96500;;;4.4;58.5
68628;BME280;55611;48.602;9.490;2023-03-15T00:31:33;96500;;;4.5;58.5
68628;BME280;55611;48.602;9.490;2023-03-15T00:34:04;96510;;;4.4;58.5
68628;BME280;55611;48.602;9.490;2023-03-15T00:36:34;96520;;;4.4;58.5
68628;BME280;55611;48.602;9.490;2023-03-15T00:39:05;96520;;;4.4;58.5
68628;BME280;55611;48.602;9.490;2023-03-15T00:41:35;96520;;;4.4;58.5
68628;BME280;55611;48.602;9.490;2023-03-15T00:44:06;96530;;;4.5;58.5
68628;BME280;55611;48.602;9.490;2023-03-15T00:46:36;96540;;;4.5;58.5
68628;BME280;55611;48.602;9.490;2023-03-15T00:49:07;96550;;;4.5;58.5
68628;BME280;55611;48.602;9.490;2023-03-15T00:51:37;96550;;;4.4;58.5
68628;BME280;55611;48.602;9.490;2023-03-15T00:54:08;96550;;;4.4;58.5
68628;BME280;55611;48.602;9.490;2023-03-15T00:56:39;96560;;;4.4;58.5
68628;BME280;55611;48.602;9.490;2023-03-15T00:59:09;96570;;;4.5;58.5
68628;BME280;55611;48.602;9.490;2023-03-15T01:01:39;96580;;;4.5;58.5
68628;BME280;55611;48.602;9.490;2023-03-15T01:04:10;96580;;;4.4;58.5
68628;BME280;55611;48.602;9.490;2023-03-15T01:06:41;96580;;;4.4;58.5
68628;BME280;55611;48.602;9.490;2023-03-15T01:09:11;96590;;;4.5;58.5
68628;BME280;55611;48.602;9.490;2023-03-15T01:16:42;96600;;;4.5;58.5
68628;BME280;55611;48.602;9.490;2023-03-15T01:19:13;96600;;;4.5;58.5
68628;BME280;55611;48.602;9.490;2023-03-15T01:21:43;96610;;;4.5;58.5
68628;BME280;55611;48.602;9.490;2023-03-15T01:24:14;96610;;;4.5;58.5
68628;BME280;55611;48.602;9.490;2023-03-15T01:26:44;96610;;;4.5;58.5
68628;BME280;55611;48.602;9.490;2023-03-15T01:29:15;96620;;;4.5;58.5
68628;BME280;55611;48.602;9.490;2023-03-15T01:31:45;96610;;;4.5;58.5
68628;BME280;55611;48.602;9.490;2023-03-15T01:34:16;96610;;;4.5;58.5
68628;BME280;55611;48.602;9.490;2023-03-15T01:36:50;96620;;;4.5;58.5
68628;BME280;55611;48.602;9.490;2023-03-15T01:39:17;96620;;;4.6;58.5
68628;BME280;55611;48.602;9.490;2023-03-15T01:41:47;96620;;;4.5;58.5
68628;BME280;55611;48.602;9.490;2023-03-15T01:44:18;96630;;;4.5;58.5
68628;BME280;55611;48.602;9.490;2023-03-15T01:46:49;96640;;;4.6;58.5
68628;BME280;55611;48.602;9.490;2023-03-15T01:49:22;96640;;;4.6;58.5
68628;BME280;55611;48.602;9.490;2023-03-15T01:51:52;96640;;;4.6;58.5
68628;BME280;55611;48.602;9.490;2023-03-15T01:54:22;96650;;;4.6;58.5
68628;BME280;55611;48.602;9.490;2023-03-15T01:56:56;96650;;;4.6;58.5
68628;BME280;55611;48.602;9.490;2023-03-15T01:59:23;96660;;;4.6;58.5
68628;BME280;55611;48.602;9.490;2023-03-15T02:01:52;96660;;;4.7;58.5
68628;BME280;55611;48.602;9.490;2023-03-15T02:04:24;96660;;;4.7;58.5
68628;BME280;55611;48.602;9.490;2023-03-15T02:06:53;96660;;;4.7;58.5
68628;BME280;55611;48.602;9.490;2023-03-15T02:09:24;96660;;;4.7;58.5
68628;BME280;55611;48.602;9.490;2023-03-15T02:11:54;96670;;;4.7;58.5
68628;BME280;55611;48.602;9.490;2023-03-15T02:14:24;96670;;;4.7;58.5
68628;BME280;55611;48.602;9.490;2023-03-15T02:16:55;96670;;;4.7;58
68628;BME280;55611;48.602;9.490;2023-03-15T02:19:30;96680;;;4.7;58.5
68628;BME280;55611;48.602;9.490;2023-03-15T02:21:59;96670;;;4.7;58.5
68628;BME280;55611;48.602;9.490;2023-03-15T02:24:30;96670;;;4.7;58.5
68628;BME280;55611;48.602;9.490;2023-03-15T02:26:57;96680;;;4.7;58.5
68628;BME280;55611;48.602;9.490;2023-03-15T02:29:27;96670;;;4.7;58.5
68628;BME280;55611;48.602;9.490;2023-03-15T02:31:58;96680;;;4.8;58.5
68628;BME280;55611;48.602;9.490;2023-03-15T02:34:29;96680;;;4.9;58.5
68628;BME280;55611;48.602;9.490;2023-03-15T02:36:59;96690;;;4.9;58.5
68628;BME280;55611;48.602;9.490;2023-03-15T02:39:29;96690;;;4.8;58.5
68628;BME280;55611;48.602;9.490;2023-03-15T02:42:00;96700;;;4.9;58.5
68628;BME280;55611;48.602;9.490;2023-03-15T02:44:31;96690;;;4.8;59
68628;BME280;55611;48.602;9.490;2023-03-15T02:47:03;96700;;;4.8;59
68628;BME280;55611;48.602;9.490;2023-03-15T02:49:33;96700;;;4.8;59
68628;BME280;55611;48.602;9.490;2023-03-15T02:52:02;96700;;;4.8;58.5
68628;BME280;55611;48.602;9.490;2023-03-15T02:54:32;96710;;;4.8;58.5
68628;BME280;55611;48.602;9.490;2023-03-15T02:57:03;96710;;;4.7;58.5
68628;BME280;55611;48.602;9.490;2023-03-15T02:59:33;96710;;;4.6;58.5
68628;BME280;55611;48.602;9.490;2023-03-15T03:02:04;96720;;;4.6;58.5
68628;BME280;55611;48.602;9.490;2023-03-15T03:04:34;96730;;;4.6;58.5
68628;BME280;55611;48.602;9.490;2023-03-15T03:07:05;96730;;;4.6;58.5
68628;BME280;55611;48.602;9.490;2023-03-15T03:09:36;96730;;;4.5;58.5
68628;BME280;55611;48.602;9.490;2023-03-15T03:12:06;96740;;;4.5;58.5
68628;BME280;55611;48.602;9.490;2023-03-15T03:14:37;96740;;;4.5;58.5
68628;BME280;55611;48.602;9.490;2023-03-15T03:17:07;96740;;;4.5;58.5
68628;BME280;55611;48.602;9.490;2023-03-15T03:19:38;96750;;;4.6;58.5
68628;BME280;55611;48.602;9.490;2023-03-15T03:22:08;96760;;;4.6;58.5
68628;BME280;55611;48.602;9.490;2023-03-15T03:24:39;96760;;;4.5;58.5
68628;BME280;55611;48.602;9.490;2023-03-15T03:27:09;96760;;;4.5;58.5
68628;BME280;55611;48.602;9.490;2023-03-15T03:29:40;96770;;;4.6;58.5
68628;BME280;55611;48.602;9.490;2023-03-15T03:32:10;96770;;;4.6;58.5
68628;BME280;55611;48.602;9.490;2023-03-15T03:34:41;96770;;;4.6;58.5
68628;BME280;55611;48.602;9.490;2023-03-15T03:37:11;96780;;;4.6;58.5
68628;BME280;55611;48.602;9.490;2023-03-15T03:39:42;96780;;;4.6;58.5
68628;BME280;55611;48.602;9.490;2023-03-15T03:42:12;96790;;;4.6;58.5
68628;BME280;55611;48.602;9.490;2023-03-15T03:44:43;96790;;;4.7;59
68628;BME280;55611;48.602;9.490;2023-03-15T03:47:13;96790;;;4.7;59
68628;BME280;55611;48.602;9.490;2023-03-15T03:49:44;96790;;;4.7;59
68628;BME280;55611;48.602;9.490;2023-03-15T03:52:14;96790;;;4.6;59
68628;BME280;55611;48.602;9.490;2023-03-15T03:57:15;96810;;;4.5;58.5
68628;BME280;55611;48.602;9.490;2023-03-15T03:59:46;96810;;;4.5;58.5
68628;BME280;55611;48.602;9.490;2023-03-15T04:02:16;96820;;;4.4;58.5
68628;BME280;55611;48.602;9.490;2023-03-15T04:04:47;96810;;;4.4;58.5
68628;BME280;55611;48.602;9.490;2023-03-15T04:07:17;96820;;;4.5;58.5
68628;BME280;55611;48.602;9.490;2023-03-15T04:09:48;96830;;;4.4;58.5
68628;BME280;55611;48.602;9.490;2023-03-15T04:12:18;96830;;;4.4;58.5
68628;BME280;55611;48.602;9.490;2023-03-15T04:14:49;96830;;;4.4;58.5
68628;BME280;55611;48.602;9.490;2023-03-15T04:17:19;96830;;;4.4;58.5
68628;BME280;55611;48.602;9.490;2023-03-15T04:19:50;96840;;;4.4;58.5
68628;BME280;55611;48.602;9.490;2023-03-15T04:22:20;96830;;;4.4;58.5
68628;BME280;55611;48.602;9.490;2023-03-15T04:24:51;96840;;;4.4;58.5
68628;BME280;55611;48.602;9.490;2023-03-15T04:27:21;96830;;;4.3;58.5
68628;BME280;55611;48.602;9.490;2023-03-15T04:29:52;96840;;;4.3;58.5
68628;BME280;55611;48.602;9.490;2023-03-15T04:32:22;96840;;;4.3;58.5
68628;BME280;55611;48.602;9.490;2023-03-15T04:34:53;96840;;;4.3;58.5
68628;BME280;55611;48.602;9.490;2023-03-15T04:37:24;96850;;;4.3;58.5
68628;BME280;55611;48.602;9.490;2023-03-15T04:39:54;96850;;;4.3;58.5
68628;BME280;55611;48.602;9.490;2023-03-15T04:44:55;96850;;;4.2;58.5
68628;BME280;55611;48.602;9.490;2023-03-15T04:47:26;96860;;;4.2;58.5
68628;BME280;55611;48.602;9.490;2023-03-15T04:49:56;96860;;;4.2;58.5
68628;BME280;55611;48.602;9.490;2023-03-15T04:52:27;96860;;;4.2;58.5
68628;BME280;55611;48.602;9.490;2023-03-15T04:54:57;96870;;;4.2;58.5
68628;BME280;55611;48.602;9.490;2023-03-15T04:57:28;96870;;;4.2;58.5
68628;BME280;55611;48.602;9.490;2023-03-15T04:59:58;96870;;;4.2;58.5
68628;BME280;55611;48.602;9.490;2023-03-15T05:02:29;96860;;;4.2;59
68628;BME280;55611;48.602;9.490;2023-03-15T05:04:59;96870;;;4.2;59
68628;BME280;55611;48.602;9.490;2023-03-15T05:07:30;96870;;;4.2;59
68628;BME280;55611;48.602;9.490;2023-03-15T05:10:00;96860;;;4.2;59
68628;BME280;55611;48.602;9.490;2023-03-15T05:12:31;96870;;;4.2;59
68628;BME280;55611;48.602;9.490;2023-03-15T05:15:01;96870;;;4.2;59
68628;BME280;55611;48.602;9.490;2023-03-15T05:17:32;96870;;;4.2;59
68628;BME280;55611;48.602;9.490;2023-03-15T05:20:02;96870;;;4.2;59
68628;BME280;55611;48.602;9.490;2023-03-15T05:22:33;96880;;;4.2;59
68628;BME280;55611;48.602;9.490;2023-03-15T05:25:03;96880;;;4.2;59
68628;BME280;55611;48.602;9.490;2023-03-15T05:27:34;96880;;;4.2;59
68628;BME280;55611;48.602;9.490;2023-03-15T05:30:05;96880;;;4.2;59
68628;BME280;55611;48.602;9.490;2023-03-15T05:32:35;96880;;;4.2;59
68628;BME280;55611;48.602;9.490;2023-03-15T05:35:06;96880;;;4.2;58.5
68628;BME280;55611;48.602;9.490;2023-03-15T05:37:36;96880;;;4.2;58.5
68628;BME280;55611;48.602;9.490;2023-03-15T05:40:07;96880;;;4.2;58.5
68628;BME280;55611;48.602;9.490;2023-03-15T05:42:37;96880;;;4.2;58.5
68628;BME280;55611;48.602;9.490;2023-03-15T05:45:08;96880;;;4.2;58.5
68628;BME280;55611;48.602;9.490;2023-03-15T05:47:38;96890;;;4.1;58.5
68628;BME280;55611;48.602;9.490;2023-03-15T05:50:09;96890;;;4;58.5
68628;BME280;55611;48.602;9.490;2023-03-15T05:52:39;96890;;;4.1;58.5
68628;BME280;55611;48.602;9.490;2023-03-15T05:55:09;96890;;;4.1;58.5
68628;BME280;55611;48.602;9.490;2023-03-15T05:57:40;96890;;;4.1;58.5
68628;BME280;55611;48.602;9.490;2023-03-15T06:00:11;96890;;;4.2;58.5
68628;BME280;55611;48.602;9.490;2023-03-15T06:02:42;96900;;;4.3;58.5
68628;BME280;55611;48.602;9.490;2023-03-15T06:05:12;96900;;;4.2;58.5
68628;BME280;55611;48.602;9.490;2023-03-15T06:07:42;96900;;;4.4;58.5
68628;BME280;55611;48.602;9.490;2023-03-15T06:10:13;96900;;;4.3;58.5
68628;BME280;55611;48.602;9.490;2023-03-15T06:12:43;96900;;;4.4;59
68628;BME280;55611;48.602;9.490;2023-03-15T06:15:14;96910;;;4.4;59
68628;BME280;55611;48.602;9.490;2023-03-15T06:17:44;96900;;;4.5;59
68628;BME280;55611;48.602;9.490;2023-03-15T06:20:15;96910;;;4.5;59
68628;BME280;55611;48.602;9.490;2023-03-15T06:22:45;96910;;;4.6;59
68628;BME280;55611;48.602;9.490;2023-03-15T06:25:16;96910;;;4.6;59
68628;BME280;55611;48.602;9.490;2023-03-15T06:27:46;96910;;;4.7;59
68628;BME280;55611;48.602;9.490;2023-03-15T06:30:17;96910;;;4.7;59
68628;BME280;55611;48.602;9.490;2023-03-15T06:32:47;96910;;;4.8;59
68628;BME280;55611;48.602;9.490;2023-03-15T06:35:18;96920;;;4.8;59
68628;BME280;55611;48.602;9.490;2023-03-15T06:37:48;96930;;;4.9;59
68628;BME280;55611;48.602;9.490;2023-03-15T06:40:19;96930;;;5;59
68628;BME280;55611;48.602;9.490;2023-03-15T06:42:49;96940;;;5.1;59
68628;BME280;55611;48.602;9.490;2023-03-15T06:45:20;96930;;;5.2;59
68628;BME280;55611;48.602;9.490;2023-03-15T06:47:50;96940;;;5.3;58.5
68628;BME280;55611;48.602;9.490;2023-03-15T06:50:21;96940;;;5.2;58.5
68628;BME280;55611;48.602;9.490;2023-03-15T06:52:51;96950;;;5.1;59
68628;BME280;55611;48.602;9.490;2023-03-15T06:55:22;96950;;;5.2;59
68628;BME280;55611;48.602;9.490;2023-03-15T06:57:52;96950;;;5.3;59
68628;BME280;55611;48.602;9.490;2023-03-15T07:00:23;96950;;;5.3;59
68628;BME280;55611;48.602;9.490;2023-03-15T07:02:53;96950;;;5.4;59
68628;BME280;55611;48.602;9.490;2023-03-15T07:05:24;96960;;;5.4;59
68628;BME280;55611;48.602;9.490;2023-03-15T07:07:55;96960;;;5.4;59
68628;BME280;55611;48.602;9.490;2023-03-15T07:10:25;96960;;;5.5;59
68628;BME280;55611;48.602;9.490;2023-03-15T07:12:55;96960;;;5.5;59
68628;BME280;55611;48.602;9.490;2023-03-15T07:15:26;96960;;;5.6;59
68628;BME280;55611;48.602;9.490;2023-03-15T07:17:56;96960;;;5.6;59
68628;BME280;55611;48.602;9.490;2023-03-15T07:20:27;96950;;;5.6;59
68628;BME280;55611;48.602;9.490;2023-03-15T07:22:58;96950;;;5.6;59
68628;BME280;55611;48.602;9.490;2023-03-15T07:25:28;96950;;;5.6;59
68628;BME280;55611;48.602;9.490;2023-03-15T07:27:59;96950;;;5.5;59.5
68628;BME280;55611;48.602;9.490;2023-03-15T07:30:29;96950;;;5.6;59.5
68628;BME280;55611;48.602;9.490;2023-03-15T07:33:00;96950;;;5.6;59
68628;BME280;55611;48.602;9.490;2023-03-15T07:35:30;96960;;;5.6;59.5
68628;BME280;55611;48.602;9.490;2023-03-15T07:38:01;96950;;;5.7;59
68628;BME280;55611;48.602;9.490;2023-03-15T07:40:31;96960;;;5.7;59.5
68628;BME280;55611;48.602;9.490;2023-03-15T07:43:02;96960;;;5.8;59
68628;BME280;55611;48.602;9.490;2023-03-15T07:45:32;96960;;;5.8;59
68628;BME280;55611;48.602;9.490;2023-03-15T07:48:03;96970;;;5.8;59.5
68628;BME280;55611;48.602;9.490;2023-03-15T07:50:33;96970;;;5.8;59.5
68628;BME280;55611;48.602;9.490;2023-03-15T07:53:04;96970;;;5.8;59.5
68628;BME280;55611;48.602;9.490;2023-03-15T07:55:34;96970;;;5.9;59.5
68628;BME280;55611;48.602;9.490;2023-03-15T07:58:05;96970;;;5.9;59.5
68628;BME280;55611;48.602;9.490;2023-03-15T08:00:35;96970;;;6.1;59.5
68628;BME280;55611;48.602;9.490;2023-03-15T08:03:06;96960;;;6.1;59.5
68628;BME280;55611;48.602;9.490;2023-03-15T08:05:36;96970;;;6.2;59.5
68628;BME280;55611;48.602;9.490;2023-03-15T08:08:07;96970;;;6.2;59.5
68628;BME280;55611;48.602;9.490;2023-03-15T08:10:37;96970;;;6.2;59.5
68628;BME280;55611;48.602;9.490;2023-03-15T08:13:08;96970;;;6.3;59.5
68628;BME280;55611;48.602;9.490;2023-03-15T08:15:38;96980;;;6.4;59.5
68628;BME280;55611;48.602;9.490;2023-03-15T08:18:09;96980;;;6.5;59.5
68628;BME280;55611;48.602;9.490;2023-03-15T08:20:39;96990;;;6.5;59.5
68628;BME280;55611;48.602;9.490;2023-03-15T08:23:10;96980;;;6.6;59.5
68628;BME280;55611;48.602;9.490;2023-03-15T08:25:42;96980;;;6.6;59.5
68628;BME280;55611;48.602;9.490;2023-03-15T08:28:11;96990;;;6.7;59.5
68628;BME280;55611;48.602;9.490;2023-03-15T08:30:41;96980;;;6.7;59.5
68628;BME280;55611;48.602;9.490;2023-03-15T08:33:12;96980;;;6.8;59.5
68628;BME280;55611;48.602;9.490;2023-03-15T08:35:42;96970;;;6.9;59.5
68628;BME280;55611;48.602;9.490;2023-03-15T08:38:13;96970;;;7;59
68628;BME280;55611;48.602;9.490;2023-03-15T08:40:43;96980;;;7.1;59
68628;BME280;55611;48.602;9.490;2023-03-15T08:43:14;96980;;;7.2;59
68628;BME280;55611;48.602;9.490;2023-03-15T08:45:44;96990;;;7.3;59
68628;BME280;55611;48.602;9.490;2023-03-15T08:48:15;96990;;;7.3;59.5
68628;BME280;55611;48.602;9.490;2023-03-15T08:50:46;96990;;;7.4;59.5
68628;BME280;55611;48.602;9.490;2023-03-15T08:53:16;96980;;;7.5;59
68628;BME280;55611;48.602;9.490;2023-03-15T08:55:47;96990;;;7.5;59
68628;BME280;55611;48.602;9.490;2023-03-15T08:58:17;96990;;;7.6;59.5
68628;BME280;55611;48.602;9.490;2023-03-15T09:00:48;96980;;;7.6;59.5
68628;BME280;55611;48.602;9.490;2023-03-15T09:03:18;96980;;;7.7;59.5
68628;BME280;55611;48.602;9.490;2023-03-15T09:05:49;96980;;;7.7;59.5
68628;BME280;55611;48.602;9.490;2023-03-15T09:08:19;96990;;;7.8;59.5
68628;BME280;55611;48.602;9.490;2023-03-15T09:10:53;96990;;;7.9;59.5
68628;BME280;55611;48.602;9.490;2023-03-15T09:13:20;96980;;;8;59.5
68628;BME280;55611;48.602;9.490;2023-03-15T09:15:51;96990;;;8;59.5
68628;BME280;55611;48.602;9.490;2023-03-15T09:18:21;96980;;;8.2;59.5
68628;BME280;55611;48.602;9.490;2023-03-15T09:20:52;96980;;;8.3;59.5
68628;BME280;55611;48.602;9.490;2023-03-15T09:23:22;96980;;;8.4;59.5
68628;BME280;55611;48.602;9.490;2023-03-15T09:25:53;97000;;;8.6;59.5
68628;BME280;55611;48.602;9.490;2023-03-15T09:28:23;96990;;;8.8;59.5
68628;BME280;55611;48.602;9.490;2023-03-15T09:30:54;97000;;;9;60
68628;BME280;55611;48.602;9.490;2023-03-15T09:33:24;97000;;;9.2;60
68628;BME280;55611;48.602;9.490;2023-03-15T09:35:55;97000;;;9.2;60
68628;BME280;55611;48.602;9.490;2023-03-15T09:40:56;97020;;;9.4;60
68628;BME280;55611;48.602;9.490;2023-03-15T09:43:37;97010;;;9.4;60
68628;BME280;55611;48.602;9.490;2023-03-15T09:46:03;97010;;;9.3;60
68628;BME280;55611;48.602;9.490;2023-03-15T09:48:29;97010;;;9.4;60
68628;BME280;55611;48.602;9.490;2023-03-15T09:50:59;97010;;;9.5;59.5
68628;BME280;55611;48.602;9.490;2023-03-15T09:53:30;97010;;;9.7;59.5
68628;BME280;55611;48.602;9.490;2023-03-15T09:55:59;97020;;;9.7;60
68628;BME280;55611;48.602;9.490;2023-03-15T09:58:30;97010;;;9.5;60
68628;BME280;55611;48.602;9.490;2023-03-15T10:01:01;97010;;;9.6;59.5
68628;BME280;55611;48.602;9.490;2023-03-15T10:03:31;97020;;;9.7;59.5
68628;BME280;55611;48.602;9.490;2023-03-15T10:06:02;97010;;;9.5;59.5
68628;BME280;55611;48.602;9.490;2023-03-15T10:08:31;97020;;;9.2;59.5
68628;BME280;55611;48.602;9.490;2023-03-15T10:11:05;97020;;;9.2;59.5
68628;BME280;55611;48.602;9.490;2023-03-15T10:18:37;97010;;;8.8;59.5
68628;BME280;55611;48.602;9.490;2023-03-15T10:21:10;97010;;;8.9;59.5
68628;BME280;55611;48.602;9.490;2023-03-15T10:23:36;97020;;;8.8;59.5
68628;BME280;55611;48.602;9.490;2023-03-15T10:26:05;97010;;;8.9;59.5
68628;BME280;55611;48.602;9.490;2023-03-15T10:28:35;97020;;;8.9;59.5
68628;BME280;55611;48.602;9.490;2023-03-15T10:31:11;97020;;;8.9;59.5
68628;BME280;55611;48.602;9.490;2023-03-15T10:33:37;97030;;;8.7;59.5
68628;BME280;55611;48.602;9.490;2023-03-15T10:36:11;97030;;;8.7;59.5
68628;BME280;55611;48.602;9.490;2023-03-15T10:38:38;97010;;;8.7;59.5
68628;BME280;55611;48.602;9.490;2023-03-15T10:41:09;97020;;;8.8;59.5
68628;BME280;55611;48.602;9.490;2023-03-15T10:43:39;97010;;;9;59.5
68628;BME280;55611;48.602;9.490;2023-03-15T10:46:10;97010;;;9.1;59.5
68628;BME280;55611;48.602;9.490;2023-03-15T10:48:50;97010;;;9;59.5
68628;BME280;55611;48.602;9.490;2023-03-15T10:51:15;97010;;;9;59.5
68628;BME280;55611;48.602;9.490;2023-03-15T10:54:33;97010;;;8.9;59.5
68628;BME280;55611;48.602;9.490;2023-03-15T10:56:12;97020;;;8.8;59.5
68628;BME280;55611;48.602;9.490;2023-03-15T10:58:45;97020;;;8.7;59.5
68628;BME280;55611;48.602;9.490;2023-03-15T11:01:13;97010;;;8.6;59.5
68628;BME280;55611;48.602;9.490;2023-03-15T11:03:43;97020;;;8.5;59.5
68628;BME280;55611;48.602;9.490;2023-03-15T11:06:17;97010;;;8.7;59.5
68628;BME280;55611;48.602;9.490;2023-03-15T11:08:44;97020;;;8.8;59.5
68628;BME280;55611;48.602;9.490;2023-03-15T11:11:14;97020;;;8.9;59.5
68628;BME280;55611;48.602;9.490;2023-03-15T11:13:54;97010;;;9;59.5
68628;BME280;55611;48.602;9.490;2023-03-15T11:16:18;97000;;;9.3;59.5
68628;BME280;55611;48.602;9.490;2023-03-15T11:18:50;96990;;;9.4;59.5
68628;BME280;55611;48.602;9.490;2023-03-15T11:21:16;96990;;;9.4;60
68628;BME280;55611;48.602;9.490;2023-03-15T11:23:47;96990;;;9.7;59.5
68628;BME280;55611;48.602;9.490;2023-03-15T11:26:19;96990;;;9.6;59.5
68628;BME280;55611;48.602;9.490;2023-03-15T11:28:49;96990;;;9.4;59.5
68628;BME280;55611;48.602;9.490;2023-03-15T11:31:19;96990;;;9.4;59.5
68628;BME280;55611;48.602;9.490;2023-03-15T11:33:51;96990;;;9.5;59.5
68628;BME280;55611;48.602;9.490;2023-03-15T11:36:20;96990;;;9.5;59.5
68628;BME280;55611;48.602;9.490;2023-03-15T11:38:50;97000;;;9.6;59.5
68628;BME280;55611;48.602;9.490;2023-03-15T11:41:29;96990;;;9.6;59.5
68628;BME280;55611;48.602;9.490;2023-03-15T11:43:54;96980;;;9.6;59.5
68628;BME280;55611;48.602;9.490;2023-03-15T11:46:31;96980;;;9.6;59.5
68628;BME280;55611;48.602;9.490;2023-03-15T11:49:55;96980;;;9.7;59
68628;BME280;55611;48.602;9.490;2023-03-15T11:51:22;96970;;;9.7;59
68628;BME280;55611;48.602;9.490;2023-03-15T11:54:01;96970;;;9.7;59
68628;BME280;55611;48.602;9.490;2023-03-15T11:56:25;96980;;;9.4;59
68628;BME280;55611;48.602;9.490;2023-03-15T12:00:14;96980;;;9.5;59
68628;BME280;55611;48.602;9.490;2023-03-15T12:01:25;96980;;;9.3;59
68628;BME280;55611;48.602;9.490;2023-03-15T12:04:29;96980;;;9.3;59
68628;BME280;55611;48.602;9.490;2023-03-15T12:06:33;96980;;;9.3;59
68628;BME280;55611;48.602;9.490;2023-03-15T12:08:56;96970;;;9.3;59
68628;BME280;55611;48.602;9.490;2023-03-15T12:11:35;96970;;;9.3;59
68628;BME280;55611;48.602;9.490;2023-03-15T12:14:04;96970;;;9.3;59
68628;BME280;55611;48.602;9.490;2023-03-15T12:16:28;96970;;;9.2;59
68628;BME280;55611;48.602;9.490;2023-03-15T12:18:58;96970;;;9.2;59
68628;BME280;55611;48.602;9.490;2023-03-15T12:21:30;96980;;;9.2;59
68628;BME280;55611;48.602;9.490;2023-03-15T12:24:02;96970;;;9.2;59
68628;BME280;55611;48.602;9.490;2023-03-15T12:26:34;96970;;;9.2;59
68628;BME280;55611;48.602;9.490;2023-03-15T12:29:04;96980;;;9.2;59
68628;BME280;55611;48.602;9.490;2023-03-15T12:32:05;96970;;;9.3;59.5
68628;BME280;55611;48.602;9.490;2023-03-15T12:34:02;96980;;;9.3;59.5
68628;BME280;55611;48.602;9.490;2023-03-15T12:36:35;96980;;;9.4;59.5
68628;BME280;55611;48.602;9.490;2023-03-15T12:39:19;96970;;;9.4;59.5
68628;BME280;55611;48.602;9.490;2023-03-15T12:41:37;96960;;;9.4;59.5
68628;BME280;55611;48.602;9.490;2023-03-15T12:44:16;96980;;;9.4;59.5
68628;BME280;55611;48.602;9.490;2023-03-15T12:47:01;96980;;;9.4;59.5
68628;BME280;55611;48.602;9.490;2023-03-15T12:49:08;96980;;;9.4;59.5
68628;BME280;55611;48.602;9.490;2023-03-15T12:51:40;96990;;;9.4;59.5
68628;BME280;55611;48.602;9.490;2023-03-15T12:54:06;96980;;;9.4;59.5
68628;BME280;55611;48.602;9.490;2023-03-15T12:56:39;96990;;;9.5;59.5
68628;BME280;55611;48.602;9.490;2023-03-15T13:01:37;96980;;;9.7;59.5
68628;BME280;55611;48.602;9.490;2023-03-15T13:04:08;96980;;;9.8;59.5
68628;BME280;55611;48.602;9.490;2023-03-15T13:06:43;96990;;;9.9;59.5
68628;BME280;55611;48.602;9.490;2023-03-15T13:09:16;96990;;;9.9;59.5
68628;BME280;55611;48.602;9.490;2023-03-15T13:11:50;96990;;;9.6;59.5
68628;BME280;55611;48.602;9.490;2023-03-15T13:14:13;96990;;;9.2;59.5
68628;BME280;55611;48.602;9.490;2023-03-15T13:16:42;96990;;;9.2;59.5
68628;BME280;55611;48.602;9.490;2023-03-15T13:19:13;96990;;;9.1;59.5
68628;BME280;55611;48.602;9.490;2023-03-15T13:24:13;96990;;;9;59
68628;BME280;55611;48.602;9.490;2023-03-15T13:26:48;96990;;;9;59
68628;BME280;55611;48.602;9.490;2023-03-15T13:29:13;96990;;;8.9;59
68628;BME280;55611;48.602;9.490;2023-03-15T13:31:44;96990;;;8.9;59
68628;BME280;55611;48.602;9.490;2023-03-15T13:34:21;96990;;;8.9;59
68628;BME280;55611;48.602;9.490;2023-03-15T13:36:45;97000;;;8.8;59
68628;BME280;55611;48.602;9.490;2023-03-15T13:39:16;97000;;;8.8;59
68628;BME280;55611;48.602;9.490;2023-03-15T13:41:45;97000;;;8.9;58.5
68628;BME280;55611;48.602;9.490;2023-03-15T13:44:18;97000;;;8.9;58.5
68628;BME280;55611;48.602;9.490;2023-03-15T13:46:47;97000;;;8.9;58.5
68628;BME280;55611;48.602;9.490;2023-03-15T13:49:17;97000;;;8.8;58.5
68628;BME280;55611;48.602;9.490;2023-03-15T13:51:48;97000;;;8.8;58.5
68628;BME280;55611;48.602;9.490;2023-03-15T13:54:20;97000;;;8.8;58.5
68628;BME280;55611;48.602;9.490;2023-03-15T13:57:19;97000;;;8.7;58.5
68628;BME280;55611;48.602;9.490;2023-03-15T13:59:19;97000;;;8.7;58.5
68628;BME280;55611;48.602;9.490;2023-03-15T14:01:49;97000;;;8.7;58.5
68628;BME280;55611;48.602;9.490;2023-03-15T14:04:20;97000;;;8.7;59
68628;BME280;55611;48.602;9.490;2023-03-15T14:06:50;97000;;;8.8;59
68628;BME280;55611;48.602;9.490;2023-03-15T14:09:24;97000;;;8.8;59
68628;BME280;55611;48.602;9.490;2023-03-15T14:11:59;97000;;;8.9;59
68628;BME280;55611;48.602;9.490;2023-03-15T14:14:23;97000;;;8.9;59
68628;BME280;55611;48.602;9.490;2023-03-15T14:16:53;97010;;;8.9;59
68628;BME280;55611;48.602;9.490;2023-03-15T14:19:24;97010;;;8.9;59
68628;BME280;55611;48.602;9.490;2023-03-15T14:21:55;97010;;;8.8;59
68628;BME280;55611;48.602;9.490;2023-03-15T14:24:25;97020;;;8.8;59
68628;BME280;55611;48.602;9.490;2023-03-15T14:26:56;97020;;;8.5;59
68628;BME280;55611;48.602;9.490;2023-03-15T14:29:26;97030;;;8.3;59
68628;BME280;55611;48.602;9.490;2023-03-15T14:35:30;97040;;;8.1;59
68628;BME280;55611;48.602;9.490;2023-03-15T14:36:56;97040;;;8.1;59
68628;BME280;55611;48.602;9.490;2023-03-15T14:39:28;97040;;;8.3;59
68628;BME280;55611;48.602;9.490;2023-03-15T14:41:57;97040;;;8.5;59
68628;BME280;55611;48.602;9.490;2023-03-15T14:44:28;97040;;;8.7;59
68628;BME280;55611;48.602;9.490;2023-03-15T14:46:59;97040;;;8.8;59
68628;BME280;55611;48.602;9.490;2023-03-15T14:49:29;97030;;;8.9;59
68628;BME280;55611;48.602;9.490;2023-03-15T14:52:00;97030;;;9;59
68628;BME280;55611;48.602;9.490;2023-03-15T14:54:30;97020;;;9.2;59
68628;BME280;55611;48.602;9.490;2023-03-15T14:57:00;97020;;;9.5;59
68628;BME280;55611;48.602;9.490;2023-03-15T14:59:31;97010;;;9.6;59
68628;BME280;55611;48.602;9.490;2023-03-15T15:02:02;97020;;;9.5;59